createdAt,value
2017-12-16T00:00:00.975Z,996.15
2017-12-16T00:04:56.663Z,996.26
2017-12-16T00:09:52.141Z,996.30
2017-12-16T00:14:48.083Z,996.25
2017-12-16T00:19:43.708Z,996.34
2017-12-16T00:24:40.379Z,996.38
2017-12-16T00:29:35.557Z,996.46
2017-12-16T00:34:31.715Z,996.52
2017-12-16T00:39:27.716Z,996.63
2017-12-16T00:44:24.189Z,996.46
2017-12-16T00:49:19.711Z,996.54
2017-12-16T00:54:18.210Z,996.60
2017-12-16T00:59:14.074Z,996.71
2017-12-16T01:04:09.795Z,996.78
2017-12-16T01:09:06.499Z,996.68
2017-12-16T01:14:01.676Z,996.85
2017-12-16T01:18:57.399Z,996.85
2017-12-16T01:23:53.388Z,996.81
2017-12-16T01:28:49.096Z,996.89
2017-12-16T01:33:45.643Z,997.02
2017-12-16T01:38:42.506Z,997.26
2017-12-16T01:43:37.697Z,997.15
2017-12-16T01:48:34.292Z,997.14
2017-12-16T01:53:29.694Z,997.19
2017-12-16T01:58:25.498Z,997.31
2017-12-16T02:03:21.021Z,997.34
2017-12-16T02:08:16.901Z,997.41
2017-12-16T02:13:12.456Z,997.46
2017-12-16T02:18:08.318Z,997.48
2017-12-16T02:23:05.009Z,997.41
2017-12-16T02:28:00.396Z,997.51
2017-12-16T02:32:56.125Z,997.59
2017-12-16T02:37:51.939Z,997.43
2017-12-16T02:42:47.655Z,997.43
2017-12-16T02:47:44.154Z,997.61
2017-12-16T02:52:39.696Z,997.66
2017-12-16T02:57:35.496Z,997.79
2017-12-16T03:02:32.096Z,997.84
2017-12-16T03:07:28.478Z,997.87
2017-12-16T03:12:23.893Z,997.98
2017-12-16T03:17:19.651Z,997.97
2017-12-16T03:22:15.195Z,998.13
2017-12-16T03:27:11.679Z,998.07
2017-12-16T03:32:07.512Z,998.14
2017-12-16T03:37:03.758Z,998.26
2017-12-16T03:41:59.327Z,998.27
2017-12-16T03:46:54.853Z,998.27
2017-12-16T03:51:52.271Z,998.34
2017-12-16T03:56:48.799Z,998.45
2017-12-16T04:01:45.265Z,998.46
2017-12-16T04:06:40.798Z,998.54
2017-12-16T04:11:37.392Z,998.54
2017-12-16T04:16:32.704Z,998.48
2017-12-16T04:21:29.025Z,998.45
2017-12-16T04:26:24.770Z,998.47
2017-12-16T04:31:20.528Z,998.52
2017-12-16T04:36:17.124Z,998.43
2017-12-16T04:41:13.202Z,998.60
2017-12-16T04:46:09.864Z,998.51
2017-12-16T04:51:06.954Z,998.67
2017-12-16T04:56:04.183Z,998.77
2017-12-16T05:01:00.489Z,998.76
2017-12-16T05:05:55.862Z,998.77
2017-12-16T05:10:51.609Z,998.79
2017-12-16T05:15:47.291Z,998.81
2017-12-16T05:20:44.069Z,998.76
2017-12-16T05:25:40.131Z,998.87
2017-12-16T05:30:36.203Z,999.02
2017-12-16T05:35:31.763Z,999.07
2017-12-16T05:40:27.417Z,999.04
2017-12-16T05:45:23.288Z,999.08
2017-12-16T05:50:19.254Z,999.19
2017-12-16T05:55:14.695Z,999.15
2017-12-16T06:00:09.915Z,999.28
2017-12-16T06:05:06.727Z,999.30
2017-12-16T06:10:02.076Z,999.37
2017-12-16T06:14:58.866Z,999.33
2017-12-16T06:19:54.270Z,999.34
2017-12-16T06:24:49.810Z,999.50
2017-12-16T06:29:46.598Z,999.48
2017-12-16T06:34:42.053Z,999.55
2017-12-16T06:39:38.295Z,999.58
2017-12-16T06:44:33.840Z,999.62
2017-12-16T06:49:29.379Z,999.69
2017-12-16T06:54:25.023Z,999.76
2017-12-16T06:59:20.675Z,999.84
2017-12-16T07:04:16.548Z,999.90
2017-12-16T07:09:12.286Z,999.87
2017-12-16T07:14:08.775Z,999.98
2017-12-16T07:19:04.876Z,1000.09
2017-12-16T07:24:00.363Z,1000.12
2017-12-16T07:28:57.066Z,1000.24
2017-12-16T07:33:52.571Z,1000.38
2017-12-16T07:38:48.041Z,1000.47
2017-12-16T07:43:43.605Z,1000.52
2017-12-16T07:48:39.124Z,1000.51
2017-12-16T07:53:35.044Z,1000.72
2017-12-16T07:58:32.592Z,1000.69
2017-12-16T08:03:29.066Z,1000.75
2017-12-16T08:08:25.686Z,1000.88
2017-12-16T08:13:22.322Z,1000.94
2017-12-16T08:18:17.710Z,1001.05
2017-12-16T08:23:13.442Z,1001.14
2017-12-16T08:28:09.499Z,1001.15
2017-12-16T08:33:05.304Z,1001.23
2017-12-16T08:38:01.123Z,1001.24
2017-12-16T08:42:57.174Z,1001.29
2017-12-16T08:47:53.764Z,1001.36
2017-12-16T08:52:49.428Z,1001.41
2017-12-16T08:57:45.012Z,1001.50
2017-12-16T09:02:40.802Z,1001.41
2017-12-16T09:07:38.346Z,1001.64
2017-12-16T09:12:34.108Z,1001.64
2017-12-16T09:17:29.990Z,1001.75
2017-12-16T09:22:27.033Z,1001.84
2017-12-16T09:27:22.961Z,1001.85
2017-12-16T09:32:18.354Z,1001.98
2017-12-16T09:37:15.108Z,1002.15
2017-12-16T09:42:11.391Z,1002.11
2017-12-16T09:47:08.323Z,1002.08
2017-12-16T09:52:04.309Z,1002.19
2017-12-16T09:57:01.056Z,1002.26
2017-12-16T10:01:58.495Z,1002.33
2017-12-16T10:06:54.353Z,1002.31
2017-12-16T10:11:51.103Z,1002.34
2017-12-16T10:16:46.131Z,1002.30
2017-12-16T10:21:41.742Z,1002.36
2017-12-16T10:26:38.248Z,1002.42
2017-12-16T10:31:33.938Z,1002.42
2017-12-16T10:36:30.540Z,1002.43
2017-12-16T10:41:27.000Z,1002.50
2017-12-16T10:46:22.604Z,1002.52
2017-12-16T10:51:18.848Z,1002.46
2017-12-16T10:56:14.862Z,1002.59
2017-12-16T11:01:11.546Z,1002.61
2017-12-16T11:06:07.012Z,1002.73
2017-12-16T11:11:04.426Z,1002.71
2017-12-16T11:16:00.188Z,1002.72
2017-12-16T11:20:57.486Z,1002.75
2017-12-16T11:25:53.434Z,1002.86
2017-12-16T11:30:50.031Z,1002.92
2017-12-16T11:35:46.568Z,1002.87
2017-12-16T11:40:43.166Z,1002.78
2017-12-16T11:45:40.169Z,1002.76
2017-12-16T11:50:36.122Z,1002.83
2017-12-16T11:55:31.539Z,1002.92
2017-12-16T12:00:27.349Z,1002.93
2017-12-16T12:05:24.061Z,1002.86
2017-12-16T12:10:19.468Z,1002.98
2017-12-16T12:15:14.850Z,1003.02
2017-12-16T12:20:10.762Z,1003.05
2017-12-16T12:25:07.520Z,1003.06
2017-12-16T12:30:02.964Z,1003.03
2017-12-16T12:35:00.252Z,1003.02
2017-12-16T12:39:55.468Z,1003.18
2017-12-16T12:44:51.007Z,1003.29
2017-12-16T12:49:46.873Z,1003.28
2017-12-16T12:54:42.668Z,1003.28
2017-12-16T12:59:38.285Z,1003.33
2017-12-16T13:04:34.633Z,1003.21
2017-12-16T13:09:31.159Z,1003.18
2017-12-16T13:14:26.532Z,1003.26
2017-12-16T13:19:22.272Z,1003.38
2017-12-16T13:24:18.180Z,1003.34
2017-12-16T13:29:13.869Z,1003.44
2017-12-16T13:34:09.994Z,1003.45
2017-12-16T13:39:05.639Z,1003.62
2017-12-16T13:44:01.478Z,1003.60
2017-12-16T13:48:58.289Z,1003.56
2017-12-16T13:53:54.225Z,1003.69
2017-12-16T13:58:49.886Z,1003.76
2017-12-16T14:03:45.624Z,1003.84
2017-12-16T14:08:42.273Z,1003.85
2017-12-16T14:13:37.556Z,1003.80
2017-12-16T14:18:34.186Z,1004.05
2017-12-16T14:23:29.722Z,1003.99
2017-12-16T14:28:25.476Z,1004.04
2017-12-16T14:33:22.821Z,1004.21
2017-12-16T14:38:18.118Z,1004.22
2017-12-16T14:43:14.077Z,1004.31
2017-12-16T14:48:10.759Z,1004.39
2017-12-16T14:53:07.880Z,1004.44
2017-12-16T14:58:02.970Z,1004.42
2017-12-16T15:02:58.914Z,1004.53
2017-12-16T15:07:54.669Z,1004.56
2017-12-16T15:12:50.573Z,1004.60
2017-12-16T15:17:47.240Z,1004.68
2017-12-16T15:22:42.704Z,1004.74
2017-12-16T15:27:38.456Z,1004.68
2017-12-16T15:32:34.224Z,1004.75
2017-12-16T15:37:30.752Z,1004.83
2017-12-16T15:42:26.339Z,1005.01
2017-12-16T15:47:22.435Z,1005.01
2017-12-16T15:52:19.039Z,1005.18
2017-12-16T15:57:14.840Z,1005.13
2017-12-16T16:02:10.675Z,1005.20
2017-12-16T16:07:06.447Z,1005.18
2017-12-16T16:12:01.802Z,1005.14
2017-12-16T16:16:57.436Z,1005.19
2017-12-16T16:21:54.368Z,1005.35
2017-12-16T16:26:49.488Z,1005.37
2017-12-16T16:31:46.600Z,1005.48
2017-12-16T16:36:43.438Z,1005.49
2017-12-16T16:41:40.821Z,1005.59
2017-12-16T16:46:36.168Z,1005.71
2017-12-16T16:51:33.196Z,1005.78
2017-12-16T16:56:29.738Z,1005.93
2017-12-16T17:01:26.025Z,1006.05
2017-12-16T17:06:22.309Z,1006.01
2017-12-16T17:11:17.873Z,1005.97
2017-12-16T17:16:13.516Z,1006.10
2017-12-16T17:21:09.294Z,1006.23
2017-12-16T17:26:05.929Z,1006.30
2017-12-16T17:31:01.252Z,1006.34
2017-12-16T17:35:57.980Z,1006.37
2017-12-16T17:40:53.458Z,1006.37
2017-12-16T17:45:49.363Z,1006.46
2017-12-16T17:50:46.363Z,1006.49
2017-12-16T17:55:41.922Z,1006.54
2017-12-16T18:00:37.482Z,1006.60
2017-12-16T18:05:33.222Z,1006.70
2017-12-16T18:10:29.040Z,1006.80
2017-12-16T18:15:24.982Z,1006.87
2017-12-16T18:20:20.931Z,1006.93
2017-12-16T18:25:16.274Z,1007.00
2017-12-16T18:30:12.519Z,1006.98
2017-12-16T18:35:09.159Z,1007.07
2017-12-16T18:40:05.366Z,1007.12
2017-12-16T18:45:02.226Z,1007.19
2017-12-16T18:49:57.614Z,1007.28
2017-12-16T18:54:54.674Z,1007.28
2017-12-16T18:59:50.166Z,1007.33
2017-12-16T19:04:46.256Z,1007.40
2017-12-16T19:09:42.936Z,1007.50
2017-12-16T19:14:38.431Z,1007.51
2017-12-16T19:19:35.161Z,1007.64
2017-12-16T19:24:30.732Z,1007.62
2017-12-16T19:29:27.358Z,1007.60
2017-12-16T19:34:22.938Z,1007.70
2017-12-16T19:39:18.541Z,1007.70
2017-12-16T19:44:14.044Z,1007.70
2017-12-16T19:49:10.249Z,1007.90
2017-12-16T19:54:07.926Z,1007.83
2017-12-16T19:59:04.223Z,1007.99
2017-12-16T20:04:00.602Z,1008.03
2017-12-16T20:08:56.303Z,1008.12
2017-12-16T20:13:51.951Z,1008.17
2017-12-16T20:18:49.052Z,1008.04
2017-12-16T20:23:44.405Z,1008.02
2017-12-16T20:28:39.836Z,1008.25
2017-12-16T20:33:35.582Z,1008.24
2017-12-16T20:38:31.921Z,1008.19
2017-12-16T20:43:29.327Z,1008.25
2017-12-16T20:48:24.422Z,1008.31
2017-12-16T20:53:21.965Z,1008.42
2017-12-16T20:58:17.355Z,1008.44
2017-12-16T21:03:12.831Z,1008.54
2017-12-16T21:08:08.608Z,1008.55
2017-12-16T21:13:05.318Z,1008.62
2017-12-16T21:18:03.470Z,1008.67
2017-12-16T21:22:59.908Z,1008.60
2017-12-16T21:27:56.260Z,1008.74
2017-12-16T21:32:52.666Z,1008.80
2017-12-16T21:37:49.060Z,1008.79
2017-12-16T21:42:46.187Z,1008.77
2017-12-16T21:47:41.544Z,1008.82
2017-12-16T21:52:36.966Z,1008.88
2017-12-16T21:57:32.724Z,1008.99
2017-12-16T22:02:29.278Z,1008.99
2017-12-16T22:07:24.629Z,1009.09
2017-12-16T22:12:20.181Z,1009.08
2017-12-16T22:17:15.974Z,1009.07
2017-12-16T22:22:11.664Z,1009.09
2017-12-16T22:27:07.540Z,1009.23
2017-12-16T22:32:03.638Z,1009.30
2017-12-16T22:36:59.615Z,1009.24
2017-12-16T22:41:55.297Z,1009.29
2017-12-16T22:46:52.033Z,1009.35
2017-12-16T22:51:47.376Z,1009.33
2017-12-16T22:56:43.010Z,1009.37
2017-12-16T23:01:39.557Z,1009.27
2017-12-16T23:06:35.269Z,1009.38
2017-12-16T23:11:30.837Z,1009.46
2017-12-16T23:16:27.495Z,1009.34
2017-12-16T23:21:22.991Z,1009.45
2017-12-16T23:26:18.161Z,1009.46
2017-12-16T23:31:14.774Z,1009.43
2017-12-16T23:36:11.270Z,1009.63
2017-12-16T23:41:06.569Z,1009.79
2017-12-16T23:46:02.599Z,1009.85
2017-12-16T23:50:58.351Z,1009.84
2017-12-16T23:55:55.135Z,1009.84
